sensor_id;sensor_type;location;lat;lon;timestamp;pressure;altitude;pressure_sealevel;temperature;humidity
61697;BME280;47610;52.252;20.922;2023-02-13T00:01:19;101914.91;;;3.55;100.00
61697;BME280;47610;52.252;20.922;2023-02-13T00:06:24;101906.23;;;3.58;100.00
61697;BME280;47610;52.252;20.922;2023-02-13T00:11:27;101908.58;;;3.61;100.00
61697;BME280;47610;52.252;20.922;2023-02-13T00:16:31;101919.07;;;3.62;100.00
61697;BME280;47610;52.252;20.922;2023-02-13T00:21:37;101903.38;;;3.61;100.00
61697;BME280;47610;52.252;20.922;2023-02-13T00:26:41;101897.98;;;3.62;100.00
61697;BME280;47610;52.252;20.922;2023-02-13T00:31:44;101893.80;;;3.63;100.00
61697;BME280;47610;52.252;20.922;2023-02-13T00:36:48;101891.41;;;3.66;100.00
61697;BME280;47610;52.252;20.922;2023-02-13T00:41:51;101896.64;;;3.69;100.00
61697;BME280;47610;52.252;20.922;2023-02-13T00:46:55;101896.23;;;3.70;100.00
61697;BME280;47610;52.252;20.922;2023-02-13T00:52:00;101900.50;;;3.73;100.00
61697;BME280;47610;52.252;20.922;2023-02-13T00:57:04;101898.89;;;3.76;100.00
61697;BME280;47610;52.252;20.922;2023-02-13T01:02:07;101893.36;;;3.78;100.00
61697;BME280;47610;52.252;20.922;2023-02-13T01:14:51;101898.60;;;3.84;100.00
61697;BME280;47610;52.252;20.922;2023-02-13T01:19:55;101893.80;;;3.83;100.00
61697;BME280;47610;52.252;20.922;2023-02-13T01:24:59;101893.94;;;3.83;100.00
61697;BME280;47610;52.252;20.922;2023-02-13T01:30:01;101885.38;;;3.82;100.00
61697;BME280;47610;52.252;20.922;2023-02-13T01:35:08;101879.10;;;3.80;100.00
61697;BME280;47610;52.252;20.922;2023-02-13T01:40:16;101878.13;;;3.78;100.00
61697;BME280;47610;52.252;20.922;2023-02-13T01:45:27;101880.91;;;3.76;100.00
61697;BME280;47610;52.252;20.922;2023-02-13T01:50:35;101881.92;;;3.76;100.00
61697;BME280;47610;52.252;20.922;2023-02-13T01:55:44;101880.08;;;3.77;100.00
61697;BME280;47610;52.252;20.922;2023-02-13T02:00:52;101879.73;;;3.76;100.00
61697;BME280;47610;52.252;20.922;2023-02-13T02:05:54;101883.34;;;3.77;100.00
61697;BME280;47610;52.252;20.922;2023-02-13T02:11:05;101881.52;;;3.77;100.00
61697;BME280;47610;52.252;20.922;2023-02-13T02:16:14;101887.48;;;3.80;100.00
61697;BME280;47610;52.252;20.922;2023-02-13T02:21:39;101887.68;;;3.82;100.00
61697;BME280;47610;52.252;20.922;2023-02-13T02:27:21;101887.96;;;3.86;100.00
61697;BME280;47610;52.252;20.922;2023-02-13T02:32:49;101887.71;;;3.89;100.00
61697;BME280;47610;52.252;20.922;2023-02-13T02:38:09;101875.35;;;3.91;100.00
61697;BME280;47610;52.252;20.922;2023-02-13T02:43:24;101877.34;;;3.92;100.00
61697;BME280;47610;52.252;20.922;2023-02-13T02:48:32;101880.15;;;3.93;100.00
61697;BME280;47610;52.252;20.922;2023-02-13T02:53:43;101889.80;;;3.93;100.00
61697;BME280;47610;52.252;20.922;2023-02-13T02:58:53;101889.79;;;3.93;100.00
61697;BME280;47610;52.252;20.922;2023-02-13T03:03:59;101901.13;;;3.94;100.00
61697;BME280;47610;52.252;20.922;2023-02-13T03:09:08;101900.88;;;3.94;100.00
61697;BME280;47610;52.252;20.922;2023-02-13T03:14:18;101902.60;;;3.95;100.00
61697;BME280;47610;52.252;20.922;2023-02-13T03:19:40;101897.78;;;3.96;100.00
61697;BME280;47610;52.252;20.922;2023-02-13T03:24:46;101900.36;;;3.97;100.00
61697;BME280;47610;52.252;20.922;2023-02-13T03:34:51;101888.31;;;4.00;100.00
61697;BME280;47610;52.252;20.922;2023-02-13T03:40:02;101886.16;;;3.99;100.00
61697;BME280;47610;52.252;20.922;2023-02-13T03:45:13;101886.73;;;3.98;100.00
61697;BME280;47610;52.252;20.922;2023-02-13T03:50:20;101885.48;;;3.98;100.00
61697;BME280;47610;52.252;20.922;2023-02-13T03:55:27;101889.71;;;3.98;100.00
61697;BME280;47610;52.252;20.922;2023-02-13T04:00:36;101889.84;;;3.97;100.00
61697;BME280;47610;52.252;20.922;2023-02-13T04:05:46;101883.62;;;3.96;100.00
61697;BME280;47610;52.252;20.922;2023-02-13T04:10:54;101874.05;;;3.95;100.00
61697;BME280;47610;52.252;20.922;2023-02-13T04:16:05;101881.39;;;3.96;100.00
61697;BME280;47610;52.252;20.922;2023-02-13T04:21:11;101880.36;;;3.97;100.00
61697;BME280;47610;52.252;20.922;2023-02-13T04:26:18;101881.79;;;3.98;100.00
61697;BME280;47610;52.252;20.922;2023-02-13T04:31:22;101884.95;;;3.98;100.00
61697;BME280;47610;52.252;20.922;2023-02-13T04:36:26;101888.96;;;3.98;100.00
61697;BME280;47610;52.252;20.922;2023-02-13T04:41:29;101892.10;;;3.98;100.00
61697;BME280;47610;52.252;20.922;2023-02-13T04:46:33;101891.27;;;3.98;100.00
61697;BME280;47610;52.252;20.922;2023-02-13T04:51:37;101889.05;;;3.99;100.00
61697;BME280;47610;52.252;20.922;2023-02-13T04:56:42;101890.41;;;4.00;100.00
61697;BME280;47610;52.252;20.922;2023-02-13T05:01:47;101889.06;;;4.00;100.00
61697;BME280;47610;52.252;20.922;2023-02-13T05:06:51;101881.99;;;4.01;100.00
61697;BME280;47610;52.252;20.922;2023-02-13T05:11:59;101876.60;;;4.04;100.00
61697;BME280;47610;52.252;20.922;2023-02-13T05:17:04;101876.50;;;4.06;100.00
61697;BME280;47610;52.252;20.922;2023-02-13T05:22:10;101876.63;;;4.06;100.00
61697;BME280;47610;52.252;20.922;2023-02-13T05:27:13;101882.04;;;4.05;100.00
61697;BME280;47610;52.252;20.922;2023-02-13T05:32:17;101888.08;;;4.05;100.00
61697;BME280;47610;52.252;20.922;2023-02-13T05:37:22;101887.73;;;4.06;100.00
61697;BME280;47610;52.252;20.922;2023-02-13T05:42:24;101888.96;;;4.08;100.00
61697;BME280;47610;52.252;20.922;2023-02-13T05:57:03;101897.39;;;4.16;100.00
61697;BME280;47610;52.252;20.922;2023-02-13T06:02:07;101908.96;;;4.17;100.00
61697;BME280;47610;52.252;20.922;2023-02-13T06:07:10;101909.27;;;4.19;100.00
61697;BME280;47610;52.252;20.922;2023-02-13T06:12:14;101909.81;;;4.22;100.00
61697;BME280;47610;52.252;20.922;2023-02-13T06:17:18;101906.10;;;4.25;100.00
61697;BME280;47610;52.252;20.922;2023-02-13T06:22:23;101907.17;;;4.27;100.00
61697;BME280;47610;52.252;20.922;2023-02-13T06:27:29;101901.27;;;4.28;100.00
61697;BME280;47610;52.252;20.922;2023-02-13T06:32:33;101902.11;;;4.29;100.00
61697;BME280;47610;52.252;20.922;2023-02-13T06:37:37;101909.46;;;4.31;100.00
61697;BME280;47610;52.252;20.922;2023-02-13T06:42:44;101911.14;;;4.31;100.00
61697;BME280;47610;52.252;20.922;2023-02-13T06:47:49;101911.02;;;4.30;100.00
61697;BME280;47610;52.252;20.922;2023-02-13T06:52:53;101921.36;;;4.29;100.00
61697;BME280;47610;52.252;20.922;2023-02-13T06:57:56;101914.48;;;4.29;100.00
61697;BME280;47610;52.252;20.922;2023-02-13T07:03:05;101916.84;;;4.30;100.00
61697;BME280;47610;52.252;20.922;2023-02-13T07:08:11;101913.48;;;4.34;100.00
61697;BME280;47610;52.252;20.922;2023-02-13T07:13:14;101900.12;;;4.37;100.00
61697;BME280;47610;52.252;20.922;2023-02-13T07:18:20;101903.90;;;4.48;100.00
61697;BME280;47610;52.252;20.922;2023-02-13T07:23:25;101912.67;;;4.68;100.00
61697;BME280;47610;52.252;20.922;2023-02-13T07:28:32;101910.91;;;5.23;100.00
61697;BME280;47610;52.252;20.922;2023-02-13T07:33:36;101913.94;;;5.75;100.00
61697;BME280;47610;52.252;20.922;2023-02-13T07:38:40;101922.84;;;6.42;100.00
61697;BME280;47610;52.252;20.922;2023-02-13T07:43:45;101929.35;;;6.64;100.00
61697;BME280;47610;52.252;20.922;2023-02-13T07:48:48;101925.27;;;6.67;100.00
61697;BME280;47610;52.252;20.922;2023-02-13T07:53:53;101924.52;;;6.58;100.00
61697;BME280;47610;52.252;20.922;2023-02-13T07:58:57;101921.24;;;6.42;100.00
61697;BME280;47610;52.252;20.922;2023-02-13T08:04:00;101921.05;;;6.18;100.00
61697;BME280;47610;52.252;20.922;2023-02-13T08:17:20;101914.09;;;6.02;100.00
61697;BME280;47610;52.252;20.922;2023-02-13T08:22:22;101906.86;;;5.99;100.00
61697;BME280;47610;52.252;20.922;2023-02-13T08:27:24;101904.19;;;6.17;100.00
61697;BME280;47610;52.252;20.922;2023-02-13T08:32:27;101900.65;;;6.54;100.00
61697;BME280;47610;52.252;20.922;2023-02-13T08:37:29;101894.45;;;6.69;100.00
61697;BME280;47610;52.252;20.922;2023-02-13T08:42:31;101903.79;;;7.00;100.00
61697;BME280;47610;52.252;20.922;2023-02-13T08:47:33;101900.34;;;7.34;100.00
61697;BME280;47610;52.252;20.922;2023-02-13T08:52:35;101894.19;;;7.59;100.00
61697;BME280;47610;52.252;20.922;2023-02-13T08:57:38;101886.92;;;7.54;100.00
61697;BME280;47610;52.252;20.922;2023-02-13T09:02:40;101884.66;;;7.24;100.00
61697;BME280;47610;52.252;20.922;2023-02-13T09:07:42;101892.94;;;6.90;100.00
61697;BME280;47610;52.252;20.922;2023-02-13T09:12:52;101887.73;;;6.63;100.00
61697;BME280;47610;52.252;20.922;2023-02-13T09:17:55;101886.65;;;6.41;100.00
61697;BME280;47610;52.252;20.922;2023-02-13T09:22:57;101889.27;;;6.33;100.00
61697;BME280;47610;52.252;20.922;2023-02-13T09:28:00;101896.46;;;6.27;100.00
61697;BME280;47610;52.252;20.922;2023-02-13T09:33:02;101893.55;;;6.11;100.00
61697;BME280;47610;52.252;20.922;2023-02-13T09:38:11;101898.08;;;6.03;100.00
61697;BME280;47610;52.252;20.922;2023-02-13T09:43:17;101898.73;;;6.17;100.00
61697;BME280;47610;52.252;20.922;2023-02-13T09:48:29;101893.58;;;6.48;100.00
61697;BME280;47610;52.252;20.922;2023-02-13T09:53:33;101889.20;;;6.85;100.00
61697;BME280;47610;52.252;20.922;2023-02-13T09:58:37;101886.46;;;7.12;100.00
61697;BME280;47610;52.252;20.922;2023-02-13T10:11:11;101891.48;;;7.61;100.00
61697;BME280;47610;52.252;20.922;2023-02-13T10:16:21;101902.04;;;7.92;100.00
61697;BME280;47610;52.252;20.922;2023-02-13T10:21:32;101904.24;;;8.12;100.00
61697;BME280;47610;52.252;20.922;2023-02-13T10:26:40;101903.85;;;7.93;100.00
61697;BME280;47610;52.252;20.922;2023-02-13T10:31:48;101904.06;;;7.56;100.00
61697;BME280;47610;52.252;20.922;2023-02-13T10:36:56;101898.66;;;7.28;100.00
61697;BME280;47610;52.252;20.922;2023-02-13T10:42:07;101893.73;;;7.19;100.00
61697;BME280;47610;52.252;20.922;2023-02-13T10:47:28;101880.63;;;7.30;100.00
61697;BME280;47610;52.252;20.922;2023-02-13T10:52:46;101868.34;;;7.36;100.00
61697;BME280;47610;52.252;20.922;2023-02-13T10:58:11;101860.85;;;7.64;100.00
61697;BME280;47610;52.252;20.922;2023-02-13T11:03:22;101868.51;;;7.88;100.00
61697;BME280;47610;52.252;20.922;2023-02-13T11:08:32;101869.69;;;8.00;100.00
61697;BME280;47610;52.252;20.922;2023-02-13T11:13:39;101864.31;;;7.95;100.00
61697;BME280;47610;52.252;20.922;2023-02-13T11:18:49;101853.89;;;7.90;100.00
61697;BME280;47610;52.252;20.922;2023-02-13T11:23:54;101847.45;;;7.94;100.00
61697;BME280;47610;52.252;20.922;2023-02-13T11:29:00;101848.25;;;7.83;100.00
61697;BME280;47610;52.252;20.922;2023-02-13T11:34:25;101842.60;;;7.77;100.00
61697;BME280;47610;52.252;20.922;2023-02-13T11:39:30;101845.62;;;7.59;100.00
61697;BME280;47610;52.252;20.922;2023-02-13T11:44:35;101839.21;;;7.38;100.00
61697;BME280;47610;52.252;20.922;2023-02-13T11:49:37;101835.15;;;7.14;100.00
61697;BME280;47610;52.252;20.922;2023-02-13T11:54:42;101829.21;;;6.91;100.00
61697;BME280;47610;52.252;20.922;2023-02-13T11:59:48;101828.38;;;6.88;100.00
61697;BME280;47610;52.252;20.922;2023-02-13T12:10:22;101815.83;;;6.64;100.00
61697;BME280;47610;52.252;20.922;2023-02-13T12:15:29;101803.03;;;6.82;100.00
61697;BME280;47610;52.252;20.922;2023-02-13T12:20:34;101794.07;;;7.22;100.00
61697;BME280;47610;52.252;20.922;2023-02-13T12:31:36;101793.75;;;7.54;100.00
61697;BME280;47610;52.252;20.922;2023-02-13T12:36:52;101791.39;;;7.54;100.00
61697;BME280;47610;52.252;20.922;2023-02-13T12:42:12;101794.52;;;7.41;100.00
61697;BME280;47610;52.252;20.922;2023-02-13T12:47:23;101783.80;;;7.19;100.00
61697;BME280;47610;52.252;20.922;2023-02-13T12:52:48;101775.05;;;7.00;100.00
61697;BME280;47610;52.252;20.922;2023-02-13T12:57:56;101771.55;;;6.91;100.00
61697;BME280;47610;52.252;20.922;2023-02-13T13:03:20;101761.52;;;6.86;100.00
61697;BME280;47610;52.252;20.922;2023-02-13T13:08:48;101754.13;;;6.99;100.00
61697;BME280;47610;52.252;20.922;2023-02-13T13:14:08;101742.98;;;7.19;100.00
61697;BME280;47610;52.252;20.922;2023-02-13T13:19:23;101735.63;;;7.29;100.00
61697;BME280;47610;52.252;20.922;2023-02-13T13:24:39;101729.07;;;7.47;100.00
61697;BME280;47610;52.252;20.922;2023-02-13T13:29:50;101726.21;;;7.61;100.00
61697;BME280;47610;52.252;20.922;2023-02-13T13:34:59;101727.63;;;7.56;100.00
61697;BME280;47610;52.252;20.922;2023-02-13T13:40:13;101726.16;;;7.45;100.00
61697;BME280;47610;52.252;20.922;2023-02-13T13:45:30;101732.61;;;7.34;100.00
61697;BME280;47610;52.252;20.922;2023-02-13T13:50:40;101730.63;;;7.32;100.00
61697;BME280;47610;52.252;20.922;2023-02-13T13:56:04;101733.07;;;7.27;100.00
61697;BME280;47610;52.252;20.922;2023-02-13T14:12:44;101719.02;;;6.86;100.00
61697;BME280;47610;52.252;20.922;2023-02-13T14:17:56;101724.27;;;6.62;100.00
61697;BME280;47610;52.252;20.922;2023-02-13T14:23:15;101725.26;;;6.44;100.00
61697;BME280;47610;52.252;20.922;2023-02-13T14:28:25;101701.67;;;6.25;100.00
61697;BME280;47610;52.252;20.922;2023-02-13T14:33:32;101706.71;;;6.14;100.00
61697;BME280;47610;52.252;20.922;2023-02-13T14:38:35;101711.64;;;6.08;100.00
61697;BME280;47610;52.252;20.922;2023-02-13T14:50:22;101709.05;;;6.15;100.00
61697;BME280;47610;52.252;20.922;2023-02-13T14:55:34;101707.59;;;6.13;100.00
61697;BME280;47610;52.252;20.922;2023-02-13T15:00:45;101708.48;;;6.10;100.00
61697;BME280;47610;52.252;20.922;2023-02-13T15:05:55;101707.17;;;6.09;100.00
61697;BME280;47610;52.252;20.922;2023-02-13T15:11:00;101698.89;;;6.07;100.00
61697;BME280;47610;52.252;20.922;2023-02-13T15:16:09;101688.43;;;6.04;100.00
61697;BME280;47610;52.252;20.922;2023-02-13T15:21:17;101681.80;;;5.99;100.00
61697;BME280;47610;52.252;20.922;2023-02-13T15:26:24;101679.48;;;5.95;100.00
61697;BME280;47610;52.252;20.922;2023-02-13T15:31:34;101659.74;;;5.91;100.00
61697;BME280;47610;52.252;20.922;2023-02-13T15:36:47;101671.11;;;5.86;100.00
61697;BME280;47610;52.252;20.922;2023-02-13T15:41:53;101664.73;;;5.78;100.00
61697;BME280;47610;52.252;20.922;2023-02-13T15:47:02;101674.95;;;5.73;100.00
61697;BME280;47610;52.252;20.922;2023-02-13T15:52:18;101678.98;;;5.68;100.00
61697;BME280;47610;52.252;20.922;2023-02-13T15:57:23;101691.82;;;5.64;100.00
61697;BME280;47610;52.252;20.922;2023-02-13T16:02:32;101699.92;;;5.62;100.00
61697;BME280;47610;52.252;20.922;2023-02-13T16:07:53;101688.55;;;5.60;100.00
61697;BME280;47610;52.252;20.922;2023-02-13T16:12:59;101694.80;;;5.56;100.00
61697;BME280;47610;52.252;20.922;2023-02-13T16:18:18;101693.61;;;5.55;100.00
61697;BME280;47610;52.252;20.922;2023-02-13T16:23:26;101688.88;;;5.53;100.00
61697;BME280;47610;52.252;20.922;2023-02-13T16:28:33;101687.37;;;5.51;100.00
61697;BME280;47610;52.252;20.922;2023-02-13T16:33:39;101694.33;;;5.48;100.00
61697;BME280;47610;52.252;20.922;2023-02-13T16:38:48;101699.63;;;5.46;100.00
61697;BME280;47610;52.252;20.922;2023-02-13T16:43:55;101712.70;;;5.45;100.00
61697;BME280;47610;52.252;20.922;2023-02-13T16:49:17;101716.39;;;5.44;100.00
61697;BME280;47610;52.252;20.922;2023-02-13T16:54:32;101710.80;;;5.41;100.00
61697;BME280;47610;52.252;20.922;2023-02-13T16:59:47;101713.92;;;5.43;100.00
61697;BME280;47610;52.252;20.922;2023-02-13T17:10:22;101706.52;;;5.41;100.00
61697;BME280;47610;52.252;20.922;2023-02-13T17:15:28;101716.63;;;5.36;100.00
61697;BME280;47610;52.252;20.922;2023-02-13T17:20:36;101710.79;;;5.32;100.00
61697;BME280;47610;52.252;20.922;2023-02-13T17:25:42;101698.70;;;5.33;100.00
61697;BME280;47610;52.252;20.922;2023-02-13T17:30:50;101692.52;;;5.31;100.00
61697;BME280;47610;52.252;20.922;2023-02-13T17:35:56;101702.14;;;5.30;100.00
61697;BME280;47610;52.252;20.922;2023-02-13T17:41:00;101697.70;;;5.29;100.00
61697;BME280;47610;52.252;20.922;2023-02-13T17:46:07;101706.75;;;5.28;100.00
61697;BME280;47610;52.252;20.922;2023-02-13T17:51:15;101703.05;;;5.25;100.00
61697;BME280;47610;52.252;20.922;2023-02-13T17:56:20;101715.06;;;5.25;100.00
61697;BME280;47610;52.252;20.922;2023-02-13T18:01:24;101728.64;;;5.24;100.00
61697;BME280;47610;52.252;20.922;2023-02-13T18:06:28;101732.92;;;5.23;100.00
61697;BME280;47610;52.252;20.922;2023-02-13T18:11:32;101737.79;;;5.21;100.00
61697;BME280;47610;52.252;20.922;2023-02-13T18:16:36;101742.31;;;5.20;100.00
61697;BME280;47610;52.252;20.922;2023-02-13T18:21:39;101749.38;;;5.20;100.00
61697;BME280;47610;52.252;20.922;2023-02-13T18:26:44;101751.52;;;5.20;100.00
61697;BME280;47610;52.252;20.922;2023-02-13T18:31:49;101756.30;;;5.21;100.00
61697;BME280;47610;52.252;20.922;2023-02-13T18:36:56;101763.62;;;5.22;100.00
61697;BME280;47610;52.252;20.922;2023-02-13T18:42:00;101757.06;;;5.22;100.00
61697;BME280;47610;52.252;20.922;2023-02-13T18:47:06;101733.67;;;5.20;100.00
61697;BME280;47610;52.252;20.922;2023-02-13T18:52:16;101744.26;;;5.20;100.00
61697;BME280;47610;52.252;20.922;2023-02-13T18:57:22;101747.02;;;5.21;100.00
61697;BME280;47610;52.252;20.922;2023-02-13T19:02:26;101755.36;;;5.21;100.00
61697;BME280;47610;52.252;20.922;2023-02-13T19:07:31;101759.27;;;5.19;100.00
61697;BME280;47610;52.252;20.922;2023-02-13T19:12:35;101759.19;;;5.19;100.00
61697;BME280;47610;52.252;20.922;2023-02-13T19:17:38;101755.59;;;5.17;100.00
61697;BME280;47610;52.252;20.922;2023-02-13T19:30:18;101765.88;;;5.17;100.00
61697;BME280;47610;52.252;20.922;2023-02-13T19:35:23;101768.48;;;5.16;100.00
61697;BME280;47610;52.252;20.922;2023-02-13T19:40:26;101768.48;;;5.16;100.00
61697;BME280;47610;52.252;20.922;2023-02-13T19:45:31;101772.33;;;5.15;100.00
61697;BME280;47610;52.252;20.922;2023-02-13T19:50:34;101783.27;;;5.11;100.00
61697;BME280;47610;52.252;20.922;2023-02-13T19:55:38;101786.55;;;5.11;100.00
61697;BME280;47610;52.252;20.922;2023-02-13T20:00:43;101784.70;;;5.10;100.00
61697;BME280;47610;52.252;20.922;2023-02-13T20:05:46;101786.11;;;5.08;100.00
61697;BME280;47610;52.252;20.922;2023-02-13T20:10:49;101782.42;;;5.06;100.00
61697;BME280;47610;52.252;20.922;2023-02-13T20:15:55;101783.63;;;5.02;100.00
61697;BME280;47610;52.252;20.922;2023-02-13T20:20:59;101787.33;;;5.00;100.00
61697;BME280;47610;52.252;20.922;2023-02-13T20:26:08;101782.98;;;4.98;100.00
61697;BME280;47610;52.252;20.922;2023-02-13T20:31:14;101786.92;;;4.96;100.00
61697;BME280;47610;52.252;20.922;2023-02-13T20:36:23;101779.60;;;4.92;100.00
61697;BME280;47610;52.252;20.922;2023-02-13T20:41:30;101780.39;;;4.92;100.00
61697;BME280;47610;52.252;20.922;2023-02-13T20:46:40;101779.60;;;4.92;100.00
61697;BME280;47610;52.252;20.922;2023-02-13T20:51:45;101775.40;;;4.91;100.00
61697;BME280;47610;52.252;20.922;2023-02-13T20:56:50;101775.94;;;4.90;100.00
61697;BME280;47610;52.252;20.922;2023-02-13T21:01:53;101773.67;;;4.88;100.00
61697;BME280;47610;52.252;20.922;2023-02-13T21:06:57;101774.56;;;4.90;100.00
61697;BME280;47610;52.252;20.922;2023-02-13T21:12:00;101768.57;;;4.88;100.00
61697;BME280;47610;52.252;20.922;2023-02-13T21:17:05;101767.20;;;4.88;100.00
61697;BME280;47610;52.252;20.922;2023-02-13T21:22:08;101772.02;;;4.87;100.00
61697;BME280;47610;52.252;20.922;2023-02-13T21:27:12;101764.33;;;4.84;100.00
61697;BME280;47610;52.252;20.922;2023-02-13T21:32:16;101759.45;;;4.80;100.00
61697;BME280;47610;52.252;20.922;2023-02-13T21:37:18;101761.80;;;4.80;100.00
61697;BME280;47610;52.252;20.922;2023-02-13T21:49:33;101764.41;;;4.81;100.00
61697;BME280;47610;52.252;20.922;2023-02-13T21:54:37;101765.45;;;4.81;100.00
61697;BME280;47610;52.252;20.922;2023-02-13T21:59:40;101757.40;;;4.82;100.00
61697;BME280;47610;52.252;20.922;2023-02-13T22:04:43;101759.83;;;4.81;100.00
61697;BME280;47610;52.252;20.922;2023-02-13T22:09:52;101751.73;;;4.79;100.00
61697;BME280;47610;52.252;20.922;2023-02-13T22:14:56;101746.84;;;4.76;100.00
61697;BME280;47610;52.252;20.922;2023-02-13T22:19:59;101747.39;;;4.76;100.00
61697;BME280;47610;52.252;20.922;2023-02-13T22:25:03;101747.84;;;4.77;100.00
61697;BME280;47610;52.252;20.922;2023-02-13T22:30:13;101753.30;;;4.74;100.00
61697;BME280;47610;52.252;20.922;2023-02-13T22:35:17;101759.00;;;4.72;100.00
61697;BME280;47610;52.252;20.922;2023-02-13T22:40:23;101768.59;;;4.73;100.00
61697;BME280;47610;52.252;20.922;2023-02-13T22:45:28;101772.55;;;4.73;100.00
61697;BME280;47610;52.252;20.922;2023-02-13T22:50:33;101767.69;;;4.74;100.00
61697;BME280;47610;52.252;20.922;2023-02-13T22:55:36;101762.48;;;4.72;100.00
61697;BME280;47610;52.252;20.922;2023-02-13T23:00:40;101762.77;;;4.71;100.00
61697;BME280;47610;52.252;20.922;2023-02-13T23:05:43;101752.79;;;4.71;100.00
61697;BME280;47610;52.252;20.922;2023-02-13T23:10:48;101749.80;;;4.71;100.00
61697;BME280;47610;52.252;20.922;2023-02-13T23:15:51;101756.67;;;4.69;100.00
61697;BME280;47610;52.252;20.922;2023-02-13T23:21:02;101759.45;;;4.70;100.00
61697;BME280;47610;52.252;20.922;2023-02-13T23:26:07;101754.81;;;4.65;100.00
61697;BME280;47610;52.252;20.922;2023-02-13T23:31:14;101757.92;;;4.67;100.00
61697;BME280;47610;52.252;20.922;2023-02-13T23:36:18;101765.08;;;4.64;100.00
61697;BME280;47610;52.252;20.922;2023-02-13T23:41:21;101767.73;;;4.60;100.00
61697;BME280;47610;52.252;20.922;2023-02-13T23:46:27;101760.52;;;4.60;100.00
61697;BME280;47610;52.252;20.922;2023-02-13T23:51:33;101750.83;;;4.60;100.00
61697;BME280;47610;52.252;20.922;2023-02-13T23:56:36;101751.42;;;4.58;100.00
